Yutan, Nebraska
Current Conditions -  °F | °C
As of 11:15 PM on Friday 24 Oct 2014 (Local Time) from KAHQ Reporting Station
Clear Clear  
Wind Chill: 51°   Ceiling: Unl
Heat Index: 51°   Visibility: 10mi
Dew Point: 46°   Wind: 3mph
Humidity: 82%   Direction: 320°NW
Pressure: 30.02"   Gusts: NA
Location:  41.24°N, 96.4°W
Report Text: KAHQ 250415Z AUTO 32003KT 10SM CLR 11/08 A3002 RMK AO2 T01050075
Loading
Personal Weather Stations






























Interactive Weather Map
Tropical Storm Tracking
New forecast layout! Learn more

10-Day Weather Forecast

Advertisements
Track Severe Weather on mobile